sensor_id;sensor_type;location;lat;lon;timestamp;P1;durP1;ratioP1;P2;durP2;ratioP2
9958;SDS011;5019;48.012;7.812;2023-01-20T00:01:25;5.85;;;4.40;;
9958;SDS011;5019;48.012;7.812;2023-01-20T00:03:52;5.53;;;3.53;;
9958;SDS011;5019;48.012;7.812;2023-01-20T00:06:18;4.47;;;3.88;;
9958;SDS011;5019;48.012;7.812;2023-01-20T00:08:48;5.88;;;4.15;;
9958;SDS011;5019;48.012;7.812;2023-01-20T00:11:14;6.95;;;4.22;;
9958;SDS011;5019;48.012;7.812;2023-01-20T00:13:40;7.13;;;4.55;;
9958;SDS011;5019;48.012;7.812;2023-01-20T00:16:07;5.60;;;3.70;;
9958;SDS011;5019;48.012;7.812;2023-01-20T00:18:33;4.60;;;3.90;;
9958;SDS011;5019;48.012;7.812;2023-01-20T00:21:03;5.70;;;3.83;;
9958;SDS011;5019;48.012;7.812;2023-01-20T00:23:29;5.07;;;4.25;;
9958;SDS011;5019;48.012;7.812;2023-01-20T00:25:55;4.40;;;3.58;;
9958;SDS011;5019;48.012;7.812;2023-01-20T00:28:21;4.30;;;3.05;;
9958;SDS011;5019;48.012;7.812;2023-01-20T00:30:47;5.30;;;4.10;;
9958;SDS011;5019;48.012;7.812;2023-01-20T00:33:13;3.95;;;2.90;;
9958;SDS011;5019;48.012;7.812;2023-01-20T00:35:39;4.53;;;3.00;;
9958;SDS011;5019;48.012;7.812;2023-01-20T00:38:05;3.40;;;2.80;;
9958;SDS011;5019;48.012;7.812;2023-01-20T00:40:31;3.50;;;3.00;;
9958;SDS011;5019;48.012;7.812;2023-01-20T00:42:57;5.20;;;3.20;;
9958;SDS011;5019;48.012;7.812;2023-01-20T00:45:39;3.90;;;3.00;;
9958;SDS011;5019;48.012;7.812;2023-01-20T00:48:05;4.55;;;2.95;;
9958;SDS011;5019;48.012;7.812;2023-01-20T00:50:31;4.18;;;2.70;;
9958;SDS011;5019;48.012;7.812;2023-01-20T00:52:57;3.05;;;2.75;;
9958;SDS011;5019;48.012;7.812;2023-01-20T00:55:23;3.78;;;2.60;;
9958;SDS011;5019;48.012;7.812;2023-01-20T00:57:49;4.75;;;3.08;;
9958;SDS011;5019;48.012;7.812;2023-01-20T01:00:16;3.83;;;2.90;;
9958;SDS011;5019;48.012;7.812;2023-01-20T01:02:42;5.15;;;3.20;;
9958;SDS011;5019;48.012;7.812;2023-01-20T01:05:08;2.75;;;2.45;;
9958;SDS011;5019;48.012;7.812;2023-01-20T01:07:34;4.03;;;2.70;;
9958;SDS011;5019;48.012;7.812;2023-01-20T01:10:00;3.43;;;2.20;;
9958;SDS011;5019;48.012;7.812;2023-01-20T01:12:26;3.00;;;2.40;;
9958;SDS011;5019;48.012;7.812;2023-01-20T01:14:52;2.93;;;2.33;;
9958;SDS011;5019;48.012;7.812;2023-01-20T01:17:18;3.10;;;2.30;;
9958;SDS011;5019;48.012;7.812;2023-01-20T01:19:47;5.82;;;2.60;;
9958;SDS011;5019;48.012;7.812;2023-01-20T01:22:13;5.53;;;3.53;;
9958;SDS011;5019;48.012;7.812;2023-01-20T01:24:41;6.47;;;3.20;;
9958;SDS011;5019;48.012;7.812;2023-01-20T01:27:07;5.80;;;3.03;;
9958;SDS011;5019;48.012;7.812;2023-01-20T01:29:33;4.40;;;3.10;;
9958;SDS011;5019;48.012;7.812;2023-01-20T01:31:59;4.20;;;3.00;;
9958;SDS011;5019;48.012;7.812;2023-01-20T01:34:25;3.22;;;2.25;;
9958;SDS011;5019;48.012;7.812;2023-01-20T01:36:51;3.20;;;2.53;;
9958;SDS011;5019;48.012;7.812;2023-01-20T01:39:17;6.68;;;3.25;;
9958;SDS011;5019;48.012;7.812;2023-01-20T01:41:43;3.20;;;2.30;;
9958;SDS011;5019;48.012;7.812;2023-01-20T01:44:10;2.80;;;2.20;;
9958;SDS011;5019;48.012;7.812;2023-01-20T01:46:36;3.28;;;2.20;;
9958;SDS011;5019;48.012;7.812;2023-01-20T01:49:24;3.25;;;2.47;;
9958;SDS011;5019;48.012;7.812;2023-01-20T01:54:25;4.35;;;2.50;;
9958;SDS011;5019;48.012;7.812;2023-01-20T01:56:52;3.20;;;2.17;;
9958;SDS011;5019;48.012;7.812;2023-01-20T01:59:18;2.65;;;2.35;;
9958;SDS011;5019;48.012;7.812;2023-01-20T02:01:51;2.85;;;2.40;;
9958;SDS011;5019;48.012;7.812;2023-01-20T02:04:18;3.03;;;2.27;;
9958;SDS011;5019;48.012;7.812;2023-01-20T02:06:51;4.30;;;2.33;;
9958;SDS011;5019;48.012;7.812;2023-01-20T02:09:17;3.47;;;2.20;;
9958;SDS011;5019;48.012;7.812;2023-01-20T02:11:48;3.00;;;2.28;;
9958;SDS011;5019;48.012;7.812;2023-01-20T02:14:20;3.50;;;2.28;;
9958;SDS011;5019;48.012;7.812;2023-01-20T02:19:41;2.22;;;2.00;;
9958;SDS011;5019;48.012;7.812;2023-01-20T02:25:03;4.20;;;2.70;;
9958;SDS011;5019;48.012;7.812;2023-01-20T02:27:46;2.60;;;2.40;;
9958;SDS011;5019;48.012;7.812;2023-01-20T02:33:14;5.50;;;2.70;;
9958;SDS011;5019;48.012;7.812;2023-01-20T02:40:47;4.00;;;2.40;;
9958;SDS011;5019;48.012;7.812;2023-01-20T02:46:01;2.50;;;2.10;;
9958;SDS011;5019;48.012;7.812;2023-01-20T02:48:33;4.32;;;2.60;;
9958;SDS011;5019;48.012;7.812;2023-01-20T02:51:13;2.40;;;2.20;;
9958;SDS011;5019;48.012;7.812;2023-01-20T02:56:37;2.50;;;2.10;;
9958;SDS011;5019;48.012;7.812;2023-01-20T02:59:05;2.63;;;2.03;;
9958;SDS011;5019;48.012;7.812;2023-01-20T03:01:42;1.83;;;1.73;;
9958;SDS011;5019;48.012;7.812;2023-01-20T03:04:11;2.47;;;1.60;;
9958;SDS011;5019;48.012;7.812;2023-01-20T03:06:39;2.78;;;1.60;;
9958;SDS011;5019;48.012;7.812;2023-01-20T03:09:09;2.28;;;1.60;;
9958;SDS011;5019;48.012;7.812;2023-01-20T03:11:37;2.88;;;1.77;;
9958;SDS011;5019;48.012;7.812;2023-01-20T03:14:11;3.53;;;1.80;;
9958;SDS011;5019;48.012;7.812;2023-01-20T03:16:38;2.10;;;1.90;;
9958;SDS011;5019;48.012;7.812;2023-01-20T03:19:05;2.63;;;2.00;;
9958;SDS011;5019;48.012;7.812;2023-01-20T03:21:31;1.85;;;1.75;;
9958;SDS011;5019;48.012;7.812;2023-01-20T03:24:01;2.50;;;2.10;;
9958;SDS011;5019;48.012;7.812;2023-01-20T03:26:27;1.90;;;1.77;;
9958;SDS011;5019;48.012;7.812;2023-01-20T03:28:54;3.75;;;2.53;;
9958;SDS011;5019;48.012;7.812;2023-01-20T03:31:26;2.30;;;1.80;;
9958;SDS011;5019;48.012;7.812;2023-01-20T03:33:54;3.90;;;1.70;;
9958;SDS011;5019;48.012;7.812;2023-01-20T03:36:22;4.43;;;2.08;;
9958;SDS011;5019;48.012;7.812;2023-01-20T03:38:48;2.25;;;2.05;;
9958;SDS011;5019;48.012;7.812;2023-01-20T03:44:08;2.92;;;2.20;;
9958;SDS011;5019;48.012;7.812;2023-01-20T03:46:52;3.88;;;2.53;;
9958;SDS011;5019;48.012;7.812;2023-01-20T03:52:05;3.53;;;2.55;;
9958;SDS011;5019;48.012;7.812;2023-01-20T03:54:39;4.15;;;2.28;;
9958;SDS011;5019;48.012;7.812;2023-01-20T03:57:11;2.07;;;1.87;;
9958;SDS011;5019;48.012;7.812;2023-01-20T03:59:39;3.15;;;2.60;;
9958;SDS011;5019;48.012;7.812;2023-01-20T04:02:06;4.53;;;2.30;;
9958;SDS011;5019;48.012;7.812;2023-01-20T04:04:33;3.60;;;2.50;;
9958;SDS011;5019;48.012;7.812;2023-01-20T04:07:02;2.40;;;2.13;;
9958;SDS011;5019;48.012;7.812;2023-01-20T04:09:29;2.63;;;2.30;;
9958;SDS011;5019;48.012;7.812;2023-01-20T04:11:56;2.58;;;2.20;;
9958;SDS011;5019;48.012;7.812;2023-01-20T04:14:23;2.13;;;1.90;;
9958;SDS011;5019;48.012;7.812;2023-01-20T04:16:50;2.38;;;2.17;;
9958;SDS011;5019;48.012;7.812;2023-01-20T04:19:17;2.50;;;2.00;;
9958;SDS011;5019;48.012;7.812;2023-01-20T04:21:44;2.10;;;1.83;;
9958;SDS011;5019;48.012;7.812;2023-01-20T04:24:23;3.28;;;1.90;;
9958;SDS011;5019;48.012;7.812;2023-01-20T04:26:51;3.30;;;2.10;;
9958;SDS011;5019;48.012;7.812;2023-01-20T04:29:17;2.88;;;2.20;;
9958;SDS011;5019;48.012;7.812;2023-01-20T04:31:43;2.13;;;1.83;;
9958;SDS011;5019;48.012;7.812;2023-01-20T04:34:10;3.88;;;2.35;;
9958;SDS011;5019;48.012;7.812;2023-01-20T04:36:37;3.33;;;2.75;;
9958;SDS011;5019;48.012;7.812;2023-01-20T04:39:03;2.77;;;2.43;;
9958;SDS011;5019;48.012;7.812;2023-01-20T04:41:29;2.53;;;2.30;;
9958;SDS011;5019;48.012;7.812;2023-01-20T04:43:55;3.00;;;2.30;;
9958;SDS011;5019;48.012;7.812;2023-01-20T04:46:21;3.92;;;3.15;;
9958;SDS011;5019;48.012;7.812;2023-01-20T04:48:47;4.93;;;3.20;;
9958;SDS011;5019;48.012;7.812;2023-01-20T04:51:13;4.03;;;3.20;;
9958;SDS011;5019;48.012;7.812;2023-01-20T04:53:39;4.18;;;3.50;;
9958;SDS011;5019;48.012;7.812;2023-01-20T04:56:14;4.20;;;3.80;;
9958;SDS011;5019;48.012;7.812;2023-01-20T04:58:40;7.15;;;4.22;;
9958;SDS011;5019;48.012;7.812;2023-01-20T05:01:07;6.45;;;5.28;;
9958;SDS011;5019;48.012;7.812;2023-01-20T05:03:33;6.97;;;5.63;;
9958;SDS011;5019;48.012;7.812;2023-01-20T05:05:59;8.05;;;5.90;;
9958;SDS011;5019;48.012;7.812;2023-01-20T05:08:25;9.38;;;6.50;;
9958;SDS011;5019;48.012;7.812;2023-01-20T05:10:51;13.75;;;8.60;;
9958;SDS011;5019;48.012;7.812;2023-01-20T05:13:17;11.85;;;8.63;;
9958;SDS011;5019;48.012;7.812;2023-01-20T05:15:43;16.50;;;10.10;;
9958;SDS011;5019;48.012;7.812;2023-01-20T05:24:31;17.58;;;11.82;;
9958;SDS011;5019;48.012;7.812;2023-01-20T05:26:59;14.43;;;10.70;;
9958;SDS011;5019;48.012;7.812;2023-01-20T05:29:25;19.50;;;12.80;;
9958;SDS011;5019;48.012;7.812;2023-01-20T05:31:51;17.42;;;12.10;;
9958;SDS011;5019;48.012;7.812;2023-01-20T05:34:17;17.50;;;12.70;;
9958;SDS011;5019;48.012;7.812;2023-01-20T05:36:43;20.42;;;12.68;;
9958;SDS011;5019;48.012;7.812;2023-01-20T05:39:09;21.23;;;13.93;;
9958;SDS011;5019;48.012;7.812;2023-01-20T05:41:35;16.60;;;11.75;;
9958;SDS011;5019;48.012;7.812;2023-01-20T05:44:01;17.80;;;12.40;;
9958;SDS011;5019;48.012;7.812;2023-01-20T05:46:27;20.98;;;12.48;;
9958;SDS011;5019;48.012;7.812;2023-01-20T05:48:53;18.27;;;12.10;;
9958;SDS011;5019;48.012;7.812;2023-01-20T05:51:19;20.58;;;12.93;;
9958;SDS011;5019;48.012;7.812;2023-01-20T05:53:45;19.77;;;12.90;;
9958;SDS011;5019;48.012;7.812;2023-01-20T05:56:11;15.70;;;12.30;;
9958;SDS011;5019;48.012;7.812;2023-01-20T05:58:39;18.42;;;11.85;;
9958;SDS011;5019;48.012;7.812;2023-01-20T06:01:06;22.70;;;12.57;;
9958;SDS011;5019;48.012;7.812;2023-01-20T06:03:33;18.77;;;12.73;;
9958;SDS011;5019;48.012;7.812;2023-01-20T06:06:09;19.77;;;12.10;;
9958;SDS011;5019;48.012;7.812;2023-01-20T06:08:38;20.67;;;12.98;;
9958;SDS011;5019;48.012;7.812;2023-01-20T06:11:04;19.87;;;12.97;;
9958;SDS011;5019;48.012;7.812;2023-01-20T06:13:30;20.27;;;11.85;;
9958;SDS011;5019;48.012;7.812;2023-01-20T06:15:56;19.70;;;12.02;;
9958;SDS011;5019;48.012;7.812;2023-01-20T06:18:22;17.10;;;11.73;;
9958;SDS011;5019;48.012;7.812;2023-01-20T06:20:48;17.40;;;11.23;;
9958;SDS011;5019;48.012;7.812;2023-01-20T06:23:14;17.20;;;11.98;;
9958;SDS011;5019;48.012;7.812;2023-01-20T06:25:40;18.70;;;12.30;;
9958;SDS011;5019;48.012;7.812;2023-01-20T06:28:07;20.70;;;12.90;;
9958;SDS011;5019;48.012;7.812;2023-01-20T06:30:33;20.08;;;12.15;;
9958;SDS011;5019;48.012;7.812;2023-01-20T06:32:59;18.50;;;11.75;;
9958;SDS011;5019;48.012;7.812;2023-01-20T06:35:25;19.98;;;12.35;;
9958;SDS011;5019;48.012;7.812;2023-01-20T06:37:51;25.25;;;15.25;;
9958;SDS011;5019;48.012;7.812;2023-01-20T06:40:17;19.30;;;11.85;;
9958;SDS011;5019;48.012;7.812;2023-01-20T06:42:43;19.42;;;11.95;;
9958;SDS011;5019;48.012;7.812;2023-01-20T06:45:09;19.20;;;11.15;;
9958;SDS011;5019;48.012;7.812;2023-01-20T06:47:35;18.67;;;11.70;;
9958;SDS011;5019;48.012;7.812;2023-01-20T06:50:01;21.60;;;13.40;;
9958;SDS011;5019;48.012;7.812;2023-01-20T06:52:27;17.65;;;12.45;;
9958;SDS011;5019;48.012;7.812;2023-01-20T06:54:53;20.40;;;12.57;;
9958;SDS011;5019;48.012;7.812;2023-01-20T07:06:34;6.75;;;5.40;;
9958;SDS011;5019;48.012;7.812;2023-01-20T07:09:05;5.40;;;4.50;;
9958;SDS011;5019;48.012;7.812;2023-01-20T07:11:31;2.80;;;2.30;;
9958;SDS011;5019;48.012;7.812;2023-01-20T07:13:59;2.92;;;2.25;;
9958;SDS011;5019;48.012;7.812;2023-01-20T07:16:25;2.85;;;2.00;;
9958;SDS011;5019;48.012;7.812;2023-01-20T07:18:51;1.83;;;1.40;;
9958;SDS011;5019;48.012;7.812;2023-01-20T07:21:18;2.15;;;1.73;;
9958;SDS011;5019;48.012;7.812;2023-01-20T07:23:44;1.50;;;1.40;;
9958;SDS011;5019;48.012;7.812;2023-01-20T07:26:11;2.70;;;1.90;;
9958;SDS011;5019;48.012;7.812;2023-01-20T07:28:37;1.80;;;1.70;;
9958;SDS011;5019;48.012;7.812;2023-01-20T07:31:04;2.97;;;2.10;;
9958;SDS011;5019;48.012;7.812;2023-01-20T07:33:30;2.55;;;1.70;;
9958;SDS011;5019;48.012;7.812;2023-01-20T07:35:56;2.90;;;1.67;;
9958;SDS011;5019;48.012;7.812;2023-01-20T07:38:22;1.70;;;1.60;;
9958;SDS011;5019;48.012;7.812;2023-01-20T07:40:48;2.08;;;1.60;;
9958;SDS011;5019;48.012;7.812;2023-01-20T07:43:14;3.50;;;1.90;;
9958;SDS011;5019;48.012;7.812;2023-01-20T07:45:41;3.22;;;1.90;;
9958;SDS011;5019;48.012;7.812;2023-01-20T07:48:07;3.22;;;2.25;;
9958;SDS011;5019;48.012;7.812;2023-01-20T07:50:33;3.20;;;2.20;;
9958;SDS011;5019;48.012;7.812;2023-01-20T07:53:00;2.92;;;1.88;;
9958;SDS011;5019;48.012;7.812;2023-01-20T07:55:26;13.70;;;8.63;;
9958;SDS011;5019;48.012;7.812;2023-01-20T07:57:51;8.27;;;6.40;;
9958;SDS011;5019;48.012;7.812;2023-01-20T08:00:18;11.98;;;7.35;;
9958;SDS011;5019;48.012;7.812;2023-01-20T08:02:44;12.93;;;9.63;;
9958;SDS011;5019;48.012;7.812;2023-01-20T08:05:10;7.38;;;4.22;;
9958;SDS011;5019;48.012;7.812;2023-01-20T08:07:36;4.55;;;3.58;;
9958;SDS011;5019;48.012;7.812;2023-01-20T08:10:02;4.00;;;3.65;;
9958;SDS011;5019;48.012;7.812;2023-01-20T08:12:28;2.40;;;2.20;;
9958;SDS011;5019;48.012;7.812;2023-01-20T08:14:54;2.05;;;1.85;;
9958;SDS011;5019;48.012;7.812;2023-01-20T08:17:21;3.30;;;1.90;;
9958;SDS011;5019;48.012;7.812;2023-01-20T08:19:47;3.30;;;2.20;;
9958;SDS011;5019;48.012;7.812;2023-01-20T08:22:13;3.50;;;2.50;;
9958;SDS011;5019;48.012;7.812;2023-01-20T08:24:39;3.25;;;2.10;;
9958;SDS011;5019;48.012;7.812;2023-01-20T08:27:05;2.42;;;1.60;;
9958;SDS011;5019;48.012;7.812;2023-01-20T08:29:31;3.15;;;2.00;;
9958;SDS011;5019;48.012;7.812;2023-01-20T08:32:00;2.13;;;1.80;;
9958;SDS011;5019;48.012;7.812;2023-01-20T08:34:27;2.30;;;1.52;;
9958;SDS011;5019;48.012;7.812;2023-01-20T08:36:53;2.50;;;1.80;;
9958;SDS011;5019;48.012;7.812;2023-01-20T08:39:21;1.77;;;1.50;;
9958;SDS011;5019;48.012;7.812;2023-01-20T08:41:47;3.03;;;2.10;;
9958;SDS011;5019;48.012;7.812;2023-01-20T08:44:14;2.20;;;1.80;;
9958;SDS011;5019;48.012;7.812;2023-01-20T08:46:41;2.97;;;1.77;;
9958;SDS011;5019;48.012;7.812;2023-01-20T08:49:12;2.15;;;1.70;;
9958;SDS011;5019;48.012;7.812;2023-01-20T08:51:39;3.20;;;2.33;;
9958;SDS011;5019;48.012;7.812;2023-01-20T08:54:05;3.30;;;2.40;;
9958;SDS011;5019;48.012;7.812;2023-01-20T08:56:31;2.20;;;2.00;;
9958;SDS011;5019;48.012;7.812;2023-01-20T08:58:58;3.25;;;2.20;;
9958;SDS011;5019;48.012;7.812;2023-01-20T09:01:25;2.20;;;1.70;;
9958;SDS011;5019;48.012;7.812;2023-01-20T09:03:52;3.83;;;1.85;;
9958;SDS011;5019;48.012;7.812;2023-01-20T09:06:18;3.70;;;1.80;;
9958;SDS011;5019;48.012;7.812;2023-01-20T09:08:46;3.63;;;2.40;;
9958;SDS011;5019;48.012;7.812;2023-01-20T09:11:16;2.75;;;1.70;;
9958;SDS011;5019;48.012;7.812;2023-01-20T09:13:42;3.30;;;2.05;;
9958;SDS011;5019;48.012;7.812;2023-01-20T09:16:10;3.20;;;2.10;;
9958;SDS011;5019;48.012;7.812;2023-01-20T09:18:36;4.70;;;1.90;;
9958;SDS011;5019;48.012;7.812;2023-01-20T09:21:02;3.73;;;2.43;;
9958;SDS011;5019;48.012;7.812;2023-01-20T09:23:32;3.03;;;2.33;;
9958;SDS011;5019;48.012;7.812;2023-01-20T09:25:58;3.67;;;2.58;;
9958;SDS011;5019;48.012;7.812;2023-01-20T09:28:25;3.42;;;3.13;;
9958;SDS011;5019;48.012;7.812;2023-01-20T09:30:56;6.37;;;3.90;;
9958;SDS011;5019;48.012;7.812;2023-01-20T09:33:22;6.90;;;4.03;;
9958;SDS011;5019;48.012;7.812;2023-01-20T09:35:54;7.50;;;4.70;;
9958;SDS011;5019;48.012;7.812;2023-01-20T09:38:21;8.10;;;4.78;;
9958;SDS011;5019;48.012;7.812;2023-01-20T09:41:18;7.43;;;4.68;;
9958;SDS011;5019;48.012;7.812;2023-01-20T09:44:30;8.48;;;4.93;;
9958;SDS011;5019;48.012;7.812;2023-01-20T09:49:52;8.97;;;5.37;;
9958;SDS011;5019;48.012;7.812;2023-01-20T09:52:41;7.70;;;5.80;;
9958;SDS011;5019;48.012;7.812;2023-01-20T10:00:35;13.33;;;8.10;;
9958;SDS011;5019;48.012;7.812;2023-01-20T10:03:26;14.23;;;9.40;;
9958;SDS011;5019;48.012;7.812;2023-01-20T10:05:49;13.53;;;9.27;;
9958;SDS011;5019;48.012;7.812;2023-01-20T10:08:18;12.25;;;8.95;;
9958;SDS011;5019;48.012;7.812;2023-01-20T10:10:47;17.90;;;10.63;;
9958;SDS011;5019;48.012;7.812;2023-01-20T10:15:45;16.48;;;10.77;;
9958;SDS011;5019;48.012;7.812;2023-01-20T10:18:17;15.10;;;9.27;;
9958;SDS011;5019;48.012;7.812;2023-01-20T10:23:13;14.90;;;9.75;;
9958;SDS011;5019;48.012;7.812;2023-01-20T10:25:55;14.13;;;9.73;;
9958;SDS011;5019;48.012;7.812;2023-01-20T10:28:28;14.95;;;10.68;;
9958;SDS011;5019;48.012;7.812;2023-01-20T10:30:57;17.00;;;10.65;;
9958;SDS011;5019;48.012;7.812;2023-01-20T10:35:54;16.00;;;10.20;;
9958;SDS011;5019;48.012;7.812;2023-01-20T10:38:25;14.48;;;9.88;;
9958;SDS011;5019;48.012;7.812;2023-01-20T10:40:56;14.23;;;9.80;;
9958;SDS011;5019;48.012;7.812;2023-01-20T10:43:24;15.88;;;9.57;;
9958;SDS011;5019;48.012;7.812;2023-01-20T10:48:41;13.50;;;9.20;;
9958;SDS011;5019;48.012;7.812;2023-01-20T10:53:48;14.02;;;8.95;;
9958;SDS011;5019;48.012;7.812;2023-01-20T10:56:21;15.55;;;9.45;;
9958;SDS011;5019;48.012;7.812;2023-01-20T10:58:50;15.85;;;9.65;;
9958;SDS011;5019;48.012;7.812;2023-01-20T11:01:16;13.40;;;9.10;;
9958;SDS011;5019;48.012;7.812;2023-01-20T11:03:44;15.05;;;10.35;;
9958;SDS011;5019;48.012;7.812;2023-01-20T11:06:18;15.77;;;9.73;;
9958;SDS011;5019;48.012;7.812;2023-01-20T11:08:44;16.27;;;9.80;;
9958;SDS011;5019;48.012;7.812;2023-01-20T11:11:12;19.85;;;10.35;;
9958;SDS011;5019;48.012;7.812;2023-01-20T11:13:39;14.07;;;9.88;;
9958;SDS011;5019;48.012;7.812;2023-01-20T11:16:09;13.18;;;9.55;;
9958;SDS011;5019;48.012;7.812;2023-01-20T11:18:36;16.17;;;10.68;;
9958;SDS011;5019;48.012;7.812;2023-01-20T11:21:03;14.27;;;9.77;;
9958;SDS011;5019;48.012;7.812;2023-01-20T11:26:06;16.23;;;9.52;;
9958;SDS011;5019;48.012;7.812;2023-01-20T11:28:51;15.32;;;9.98;;
9958;SDS011;5019;48.012;7.812;2023-01-20T11:31:18;17.00;;;10.77;;
9958;SDS011;5019;48.012;7.812;2023-01-20T11:34:45;17.17;;;10.30;;
9958;SDS011;5019;48.012;7.812;2023-01-20T11:36:40;18.25;;;10.98;;
9958;SDS011;5019;48.012;7.812;2023-01-20T11:39:11;19.65;;;11.20;;
9958;SDS011;5019;48.012;7.812;2023-01-20T11:41:48;17.73;;;11.35;;
9958;SDS011;5019;48.012;7.812;2023-01-20T11:44:28;17.42;;;10.82;;
9958;SDS011;5019;48.012;7.812;2023-01-20T11:46:54;21.53;;;11.70;;
9958;SDS011;5019;48.012;7.812;2023-01-20T11:49:22;16.42;;;11.45;;
9958;SDS011;5019;48.012;7.812;2023-01-20T11:51:49;18.48;;;11.75;;
9958;SDS011;5019;48.012;7.812;2023-01-20T11:54:19;18.95;;;11.25;;
9958;SDS011;5019;48.012;7.812;2023-01-20T11:56:48;16.30;;;11.70;;
9958;SDS011;5019;48.012;7.812;2023-01-20T11:59:25;16.67;;;10.88;;
9958;SDS011;5019;48.012;7.812;2023-01-20T12:02:18;18.98;;;11.57;;
9958;SDS011;5019;48.012;7.812;2023-01-20T12:07:31;17.60;;;11.20;;
9958;SDS011;5019;48.012;7.812;2023-01-20T12:10:12;19.40;;;10.13;;
9958;SDS011;5019;48.012;7.812;2023-01-20T12:12:41;22.58;;;11.88;;
9958;SDS011;5019;48.012;7.812;2023-01-20T12:25:15;16.98;;;10.68;;
9958;SDS011;5019;48.012;7.812;2023-01-20T12:27:46;17.20;;;10.43;;
9958;SDS011;5019;48.012;7.812;2023-01-20T12:30:15;16.33;;;10.50;;
9958;SDS011;5019;48.012;7.812;2023-01-20T12:32:44;16.65;;;10.98;;
9958;SDS011;5019;48.012;7.812;2023-01-20T12:35:12;16.80;;;10.53;;
9958;SDS011;5019;48.012;7.812;2023-01-20T12:37:42;17.52;;;10.23;;
9958;SDS011;5019;48.012;7.812;2023-01-20T12:42:59;17.45;;;11.13;;
9958;SDS011;5019;48.012;7.812;2023-01-20T12:45:38;18.73;;;10.03;;
9958;SDS011;5019;48.012;7.812;2023-01-20T12:48:12;16.42;;;10.30;;
9958;SDS011;5019;48.012;7.812;2023-01-20T12:50:52;17.48;;;10.13;;
9958;SDS011;5019;48.012;7.812;2023-01-20T12:53:36;20.33;;;11.00;;
9958;SDS011;5019;48.012;7.812;2023-01-20T12:58:50;16.60;;;9.85;;
9958;SDS011;5019;48.012;7.812;2023-01-20T13:01:27;16.50;;;10.77;;
9958;SDS011;5019;48.012;7.812;2023-01-20T13:11:55;17.58;;;10.95;;
9958;SDS011;5019;48.012;7.812;2023-01-20T13:14:24;15.50;;;9.80;;
9958;SDS011;5019;48.012;7.812;2023-01-20T13:19:27;12.38;;;8.65;;
9958;SDS011;5019;48.012;7.812;2023-01-20T13:21:54;13.73;;;8.98;;
9958;SDS011;5019;48.012;7.812;2023-01-20T13:24:21;14.30;;;8.40;;
9958;SDS011;5019;48.012;7.812;2023-01-20T13:26:54;13.88;;;8.98;;
9958;SDS011;5019;48.012;7.812;2023-01-20T13:29:21;12.00;;;8.50;;
9958;SDS011;5019;48.012;7.812;2023-01-20T13:31:49;13.30;;;8.40;;
9958;SDS011;5019;48.012;7.812;2023-01-20T13:48:34;13.88;;;8.20;;
9958;SDS011;5019;48.012;7.812;2023-01-20T13:50:32;13.63;;;8.63;;
9958;SDS011;5019;48.012;7.812;2023-01-20T13:57:54;12.48;;;8.35;;
9958;SDS011;5019;48.012;7.812;2023-01-20T14:00:20;14.00;;;8.55;;
9958;SDS011;5019;48.012;7.812;2023-01-20T14:02:47;13.77;;;8.77;;
9958;SDS011;5019;48.012;7.812;2023-01-20T14:05:46;13.90;;;8.23;;
9958;SDS011;5019;48.012;7.812;2023-01-20T14:08:11;12.38;;;7.93;;
9958;SDS011;5019;48.012;7.812;2023-01-20T14:10:38;11.68;;;7.25;;
9958;SDS011;5019;48.012;7.812;2023-01-20T14:13:20;9.88;;;7.20;;
9958;SDS011;5019;48.012;7.812;2023-01-20T14:15:47;8.82;;;7.15;;
9958;SDS011;5019;48.012;7.812;2023-01-20T14:18:15;10.68;;;6.00;;
9958;SDS011;5019;48.012;7.812;2023-01-20T14:20:42;8.50;;;5.20;;
9958;SDS011;5019;48.012;7.812;2023-01-20T14:25:55;9.40;;;5.90;;
9958;SDS011;5019;48.012;7.812;2023-01-20T14:28:21;10.68;;;6.70;;
9958;SDS011;5019;48.012;7.812;2023-01-20T14:30:47;6.47;;;5.28;;
9958;SDS011;5019;48.012;7.812;2023-01-20T14:33:14;8.15;;;5.38;;
9958;SDS011;5019;48.012;7.812;2023-01-20T14:35:40;10.25;;;6.47;;
9958;SDS011;5019;48.012;7.812;2023-01-20T14:38:15;10.25;;;6.10;;
9958;SDS011;5019;48.012;7.812;2023-01-20T14:40:42;10.88;;;6.20;;
9958;SDS011;5019;48.012;7.812;2023-01-20T14:43:16;9.27;;;6.03;;
9958;SDS011;5019;48.012;7.812;2023-01-20T14:45:44;9.43;;;5.85;;
9958;SDS011;5019;48.012;7.812;2023-01-20T14:48:11;8.70;;;6.05;;
9958;SDS011;5019;48.012;7.812;2023-01-20T14:50:38;7.18;;;5.20;;
9958;SDS011;5019;48.012;7.812;2023-01-20T14:53:04;8.15;;;5.55;;
9958;SDS011;5019;48.012;7.812;2023-01-20T14:55:37;10.50;;;6.20;;
9958;SDS011;5019;48.012;7.812;2023-01-20T14:58:11;12.48;;;6.85;;
9958;SDS011;5019;48.012;7.812;2023-01-20T15:00:41;10.20;;;6.40;;
9958;SDS011;5019;48.012;7.812;2023-01-20T15:03:16;9.55;;;6.10;;
9958;SDS011;5019;48.012;7.812;2023-01-20T15:13:39;10.32;;;5.53;;
9958;SDS011;5019;48.012;7.812;2023-01-20T15:16:14;10.38;;;6.45;;
9958;SDS011;5019;48.012;7.812;2023-01-20T15:19:29;8.93;;;5.70;;
9958;SDS011;5019;48.012;7.812;2023-01-20T15:21:30;9.27;;;5.68;;
9958;SDS011;5019;48.012;7.812;2023-01-20T15:24:11;12.63;;;6.00;;
9958;SDS011;5019;48.012;7.812;2023-01-20T15:26:37;12.95;;;6.90;;
9958;SDS011;5019;48.012;7.812;2023-01-20T15:29:19;10.47;;;7.10;;
9958;SDS011;5019;48.012;7.812;2023-01-20T15:31:46;10.73;;;6.93;;
9958;SDS011;5019;48.012;7.812;2023-01-20T15:34:12;11.05;;;7.30;;
9958;SDS011;5019;48.012;7.812;2023-01-20T15:36:38;9.65;;;6.07;;
9958;SDS011;5019;48.012;7.812;2023-01-20T15:39:10;13.10;;;7.70;;
9958;SDS011;5019;48.012;7.812;2023-01-20T15:41:37;9.52;;;6.35;;
9958;SDS011;5019;48.012;7.812;2023-01-20T15:44:03;12.20;;;6.53;;
9958;SDS011;5019;48.012;7.812;2023-01-20T15:46:29;7.00;;;5.85;;
9958;SDS011;5019;48.012;7.812;2023-01-20T15:48:55;9.45;;;5.47;;
9958;SDS011;5019;48.012;7.812;2023-01-20T15:51:21;8.93;;;6.00;;
9958;SDS011;5019;48.012;7.812;2023-01-20T15:53:47;8.77;;;6.05;;
9958;SDS011;5019;48.012;7.812;2023-01-20T15:58:48;8.88;;;6.30;;
9958;SDS011;5019;48.012;7.812;2023-01-20T16:01:16;11.45;;;6.18;;
9958;SDS011;5019;48.012;7.812;2023-01-20T16:03:42;10.65;;;6.30;;
9958;SDS011;5019;48.012;7.812;2023-01-20T16:06:12;10.17;;;6.30;;
9958;SDS011;5019;48.012;7.812;2023-01-20T16:08:38;10.82;;;6.88;;
9958;SDS011;5019;48.012;7.812;2023-01-20T16:11:04;11.13;;;6.35;;
9958;SDS011;5019;48.012;7.812;2023-01-20T16:13:31;10.73;;;7.35;;
9958;SDS011;5019;48.012;7.812;2023-01-20T16:15:57;15.35;;;7.30;;
9958;SDS011;5019;48.012;7.812;2023-01-20T16:18:23;11.47;;;7.20;;
9958;SDS011;5019;48.012;7.812;2023-01-20T16:20:49;9.98;;;7.43;;
9958;SDS011;5019;48.012;7.812;2023-01-20T16:23:16;12.80;;;8.07;;
9958;SDS011;5019;48.012;7.812;2023-01-20T16:25:42;11.68;;;7.70;;
9958;SDS011;5019;48.012;7.812;2023-01-20T16:28:10;9.73;;;6.90;;
9958;SDS011;5019;48.012;7.812;2023-01-20T16:30:37;9.57;;;5.90;;
9958;SDS011;5019;48.012;7.812;2023-01-20T16:33:03;13.43;;;7.43;;
9958;SDS011;5019;48.012;7.812;2023-01-20T16:35:29;11.30;;;6.78;;
9958;SDS011;5019;48.012;7.812;2023-01-20T16:37:55;10.15;;;6.45;;
9958;SDS011;5019;48.012;7.812;2023-01-20T16:40:21;11.40;;;6.78;;
9958;SDS011;5019;48.012;7.812;2023-01-20T16:42:48;11.55;;;6.90;;
9958;SDS011;5019;48.012;7.812;2023-01-20T16:45:27;9.25;;;6.18;;
9958;SDS011;5019;48.012;7.812;2023-01-20T16:47:53;11.30;;;6.75;;
9958;SDS011;5019;48.012;7.812;2023-01-20T16:50:20;10.52;;;6.38;;
9958;SDS011;5019;48.012;7.812;2023-01-20T16:52:46;7.10;;;5.30;;
9958;SDS011;5019;48.012;7.812;2023-01-20T16:55:12;8.07;;;5.68;;
9958;SDS011;5019;48.012;7.812;2023-01-20T16:57:38;10.43;;;5.82;;
9958;SDS011;5019;48.012;7.812;2023-01-20T17:00:04;11.88;;;6.43;;
9958;SDS011;5019;48.012;7.812;2023-01-20T17:02:31;8.55;;;5.93;;
9958;SDS011;5019;48.012;7.812;2023-01-20T17:04:58;8.05;;;5.50;;
9958;SDS011;5019;48.012;7.812;2023-01-20T17:07:24;8.75;;;5.53;;
9958;SDS011;5019;48.012;7.812;2023-01-20T17:09:51;6.93;;;5.57;;
9958;SDS011;5019;48.012;7.812;2023-01-20T17:12:17;7.65;;;5.80;;
9958;SDS011;5019;48.012;7.812;2023-01-20T17:14:43;7.65;;;5.10;;
9958;SDS011;5019;48.012;7.812;2023-01-20T17:17:09;9.63;;;5.50;;
9958;SDS011;5019;48.012;7.812;2023-01-20T17:19:35;7.95;;;5.63;;
9958;SDS011;5019;48.012;7.812;2023-01-20T17:22:01;9.13;;;5.00;;
9958;SDS011;5019;48.012;7.812;2023-01-20T17:24:27;10.23;;;5.53;;